sensor_id;sensor_type;location;lat;lon;timestamp;P1;durP1;ratioP1;P2;durP2;ratioP2
25237;SDS011;13185;50.872;5.306;2022-07-21T00:01:31;10.40;;;6.50;;
25237;SDS011;13185;50.872;5.306;2022-07-21T00:03:56;8.02;;;6.07;;
25237;SDS011;13185;50.872;5.306;2022-07-21T00:06:22;6.70;;;6.10;;
25237;SDS011;13185;50.872;5.306;2022-07-21T00:08:47;7.85;;;6.95;;
25237;SDS011;13185;50.872;5.306;2022-07-21T00:11:13;9.85;;;6.88;;
25237;SDS011;13185;50.872;5.306;2022-07-21T00:13:38;8.00;;;7.20;;
25237;SDS011;13185;50.872;5.306;2022-07-21T00:16:04;8.05;;;7.22;;
25237;SDS011;13185;50.872;5.306;2022-07-21T00:18:30;9.25;;;7.30;;
25237;SDS011;13185;50.872;5.306;2022-07-21T00:20:55;7.47;;;6.60;;
25237;SDS011;13185;50.872;5.306;2022-07-21T00:23:22;7.95;;;7.07;;
25237;SDS011;13185;50.872;5.306;2022-07-21T00:25:48;9.38;;;7.47;;
25237;SDS011;13185;50.872;5.306;2022-07-21T00:28:14;12.48;;;6.65;;
25237;SDS011;13185;50.872;5.306;2022-07-21T00:30:39;9.15;;;6.72;;
25237;SDS011;13185;50.872;5.306;2022-07-21T00:33:05;7.45;;;6.65;;
25237;SDS011;13185;50.872;5.306;2022-07-21T00:35:30;7.53;;;6.78;;
25237;SDS011;13185;50.872;5.306;2022-07-21T00:37:56;7.82;;;6.57;;
25237;SDS011;13185;50.872;5.306;2022-07-21T00:40:22;9.15;;;6.93;;
25237;SDS011;13185;50.872;5.306;2022-07-21T00:42:47;7.18;;;6.22;;
25237;SDS011;13185;50.872;5.306;2022-07-21T00:45:13;7.43;;;6.60;;
25237;SDS011;13185;50.872;5.306;2022-07-21T00:47:38;7.60;;;6.57;;
25237;SDS011;13185;50.872;5.306;2022-07-21T00:50:06;8.98;;;6.72;;
25237;SDS011;13185;50.872;5.306;2022-07-21T00:52:33;9.35;;;6.70;;
25237;SDS011;13185;50.872;5.306;2022-07-21T00:54:59;9.23;;;7.35;;
25237;SDS011;13185;50.872;5.306;2022-07-21T00:57:25;8.00;;;6.75;;
25237;SDS011;13185;50.872;5.306;2022-07-21T00:59:50;9.35;;;6.65;;
25237;SDS011;13185;50.872;5.306;2022-07-21T01:02:16;8.52;;;6.93;;
25237;SDS011;13185;50.872;5.306;2022-07-21T01:04:41;8.20;;;6.28;;
25237;SDS011;13185;50.872;5.306;2022-07-21T01:07:07;8.55;;;7.05;;
25237;SDS011;13185;50.872;5.306;2022-07-21T01:09:33;7.43;;;6.65;;
25237;SDS011;13185;50.872;5.306;2022-07-21T01:12:01;10.10;;;7.15;;
25237;SDS011;13185;50.872;5.306;2022-07-21T01:14:27;8.52;;;7.30;;
25237;SDS011;13185;50.872;5.306;2022-07-21T01:16:53;8.63;;;7.18;;
25237;SDS011;13185;50.872;5.306;2022-07-21T01:19:19;10.20;;;6.90;;
25237;SDS011;13185;50.872;5.306;2022-07-21T01:21:45;10.05;;;6.85;;
25237;SDS011;13185;50.872;5.306;2022-07-21T01:24:12;10.00;;;6.97;;
25237;SDS011;13185;50.872;5.306;2022-07-21T01:29:15;9.77;;;7.35;;
25237;SDS011;13185;50.872;5.306;2022-07-21T01:31:42;12.18;;;8.57;;
25237;SDS011;13185;50.872;5.306;2022-07-21T01:34:08;9.82;;;7.38;;
25237;SDS011;13185;50.872;5.306;2022-07-21T01:36:35;8.75;;;7.55;;
25237;SDS011;13185;50.872;5.306;2022-07-21T01:39:01;7.97;;;7.00;;
25237;SDS011;13185;50.872;5.306;2022-07-21T01:41:46;11.13;;;6.88;;
25237;SDS011;13185;50.872;5.306;2022-07-21T01:44:12;9.95;;;7.65;;
25237;SDS011;13185;50.872;5.306;2022-07-21T01:46:43;9.00;;;7.38;;
25237;SDS011;13185;50.872;5.306;2022-07-21T01:49:12;7.28;;;6.57;;
25237;SDS011;13185;50.872;5.306;2022-07-21T01:51:38;9.98;;;7.55;;
25237;SDS011;13185;50.872;5.306;2022-07-21T01:54:04;8.30;;;7.50;;
25237;SDS011;13185;50.872;5.306;2022-07-21T01:56:32;8.88;;;7.20;;
25237;SDS011;13185;50.872;5.306;2022-07-21T01:58:58;9.05;;;6.85;;
25237;SDS011;13185;50.872;5.306;2022-07-21T02:01:24;10.75;;;7.78;;
25237;SDS011;13185;50.872;5.306;2022-07-21T02:03:51;8.88;;;7.97;;
25237;SDS011;13185;50.872;5.306;2022-07-21T02:06:17;15.45;;;8.20;;
25237;SDS011;13185;50.872;5.306;2022-07-21T02:08:43;8.38;;;7.53;;
25237;SDS011;13185;50.872;5.306;2022-07-21T02:11:09;11.05;;;8.38;;
25237;SDS011;13185;50.872;5.306;2022-07-21T02:13:36;8.75;;;7.85;;
25237;SDS011;13185;50.872;5.306;2022-07-21T02:16:01;8.80;;;7.60;;
25237;SDS011;13185;50.872;5.306;2022-07-21T02:18:27;9.43;;;8.43;;
25237;SDS011;13185;50.872;5.306;2022-07-21T02:20:53;12.00;;;8.77;;
25237;SDS011;13185;50.872;5.306;2022-07-21T02:23:19;10.80;;;8.35;;
25237;SDS011;13185;50.872;5.306;2022-07-21T02:25:46;11.07;;;8.70;;
25237;SDS011;13185;50.872;5.306;2022-07-21T02:28:12;9.40;;;8.48;;
25237;SDS011;13185;50.872;5.306;2022-07-21T02:30:38;9.15;;;8.32;;
25237;SDS011;13185;50.872;5.306;2022-07-21T02:33:04;10.63;;;9.50;;
25237;SDS011;13185;50.872;5.306;2022-07-21T02:35:30;10.43;;;9.32;;
25237;SDS011;13185;50.872;5.306;2022-07-21T02:37:55;14.68;;;8.80;;
25237;SDS011;13185;50.872;5.306;2022-07-21T02:40:21;11.43;;;10.00;;
25237;SDS011;13185;50.872;5.306;2022-07-21T02:42:47;11.73;;;8.93;;
25237;SDS011;13185;50.872;5.306;2022-07-21T02:45:12;11.75;;;9.68;;
25237;SDS011;13185;50.872;5.306;2022-07-21T02:50:34;11.13;;;10.02;;
25237;SDS011;13185;50.872;5.306;2022-07-21T02:53:06;13.73;;;10.35;;
25237;SDS011;13185;50.872;5.306;2022-07-21T02:55:33;11.65;;;10.30;;
25237;SDS011;13185;50.872;5.306;2022-07-21T02:58:03;11.93;;;10.73;;
25237;SDS011;13185;50.872;5.306;2022-07-21T03:00:28;16.17;;;10.85;;
25237;SDS011;13185;50.872;5.306;2022-07-21T03:02:54;13.40;;;10.38;;
25237;SDS011;13185;50.872;5.306;2022-07-21T03:05:19;12.50;;;11.30;;
25237;SDS011;13185;50.872;5.306;2022-07-21T03:07:45;11.68;;;9.90;;
25237;SDS011;13185;50.872;5.306;2022-07-21T03:10:10;15.52;;;10.68;;
25237;SDS011;13185;50.872;5.306;2022-07-21T03:12:36;16.08;;;10.77;;
25237;SDS011;13185;50.872;5.306;2022-07-21T03:15:01;13.60;;;12.15;;
25237;SDS011;13185;50.872;5.306;2022-07-21T03:17:27;13.48;;;11.38;;
25237;SDS011;13185;50.872;5.306;2022-07-21T03:19:53;13.05;;;11.55;;
25237;SDS011;13185;50.872;5.306;2022-07-21T03:22:18;13.02;;;10.93;;
25237;SDS011;13185;50.872;5.306;2022-07-21T03:24:44;14.43;;;10.38;;
25237;SDS011;13185;50.872;5.306;2022-07-21T03:27:09;12.43;;;11.05;;
25237;SDS011;13185;50.872;5.306;2022-07-21T03:29:35;15.85;;;11.93;;
25237;SDS011;13185;50.872;5.306;2022-07-21T03:32:00;13.60;;;11.05;;
25237;SDS011;13185;50.872;5.306;2022-07-21T03:34:26;12.70;;;11.38;;
25237;SDS011;13185;50.872;5.306;2022-07-21T03:36:51;12.35;;;11.05;;
25237;SDS011;13185;50.872;5.306;2022-07-21T03:39:16;13.13;;;11.00;;
25237;SDS011;13185;50.872;5.306;2022-07-21T03:41:42;12.25;;;10.82;;
25237;SDS011;13185;50.872;5.306;2022-07-21T03:44:07;14.43;;;11.32;;
25237;SDS011;13185;50.872;5.306;2022-07-21T03:46:33;14.23;;;11.95;;
25237;SDS011;13185;50.872;5.306;2022-07-21T03:48:58;12.57;;;11.13;;
25237;SDS011;13185;50.872;5.306;2022-07-21T03:51:24;13.45;;;11.55;;
25237;SDS011;13185;50.872;5.306;2022-07-21T03:53:49;18.10;;;11.68;;
25237;SDS011;13185;50.872;5.306;2022-07-21T03:56:15;13.73;;;10.95;;
25237;SDS011;13185;50.872;5.306;2022-07-21T03:58:40;13.85;;;12.45;;
25237;SDS011;13185;50.872;5.306;2022-07-21T04:01:06;14.70;;;11.88;;
25237;SDS011;13185;50.872;5.306;2022-07-21T04:03:31;14.00;;;11.40;;
25237;SDS011;13185;50.872;5.306;2022-07-21T04:05:59;15.93;;;12.27;;
25237;SDS011;13185;50.872;5.306;2022-07-21T04:08:24;21.90;;;12.25;;
25237;SDS011;13185;50.872;5.306;2022-07-21T04:10:50;17.50;;;11.90;;
25237;SDS011;13185;50.872;5.306;2022-07-21T04:13:16;13.75;;;10.88;;
25237;SDS011;13185;50.872;5.306;2022-07-21T04:15:42;13.85;;;11.32;;
25237;SDS011;13185;50.872;5.306;2022-07-21T04:18:07;17.17;;;11.95;;
25237;SDS011;13185;50.872;5.306;2022-07-21T04:20:33;15.50;;;11.90;;
25237;SDS011;13185;50.872;5.306;2022-07-21T04:22:59;14.25;;;11.18;;
25237;SDS011;13185;50.872;5.306;2022-07-21T04:25:25;18.10;;;11.95;;
25237;SDS011;13185;50.872;5.306;2022-07-21T04:27:51;14.60;;;11.77;;
25237;SDS011;13185;50.872;5.306;2022-07-21T04:30:19;13.82;;;11.65;;
25237;SDS011;13185;50.872;5.306;2022-07-21T04:32:46;13.45;;;11.60;;
25237;SDS011;13185;50.872;5.306;2022-07-21T04:35:12;16.77;;;11.68;;
25237;SDS011;13185;50.872;5.306;2022-07-21T04:37:39;12.90;;;10.60;;
25237;SDS011;13185;50.872;5.306;2022-07-21T04:40:06;16.00;;;11.77;;
25237;SDS011;13185;50.872;5.306;2022-07-21T04:42:33;15.88;;;11.60;;
25237;SDS011;13185;50.872;5.306;2022-07-21T04:45:00;14.23;;;11.15;;
25237;SDS011;13185;50.872;5.306;2022-07-21T04:47:25;11.80;;;10.65;;
25237;SDS011;13185;50.872;5.306;2022-07-21T04:49:51;16.73;;;11.45;;
25237;SDS011;13185;50.872;5.306;2022-07-21T04:52:16;13.75;;;10.30;;
25237;SDS011;13185;50.872;5.306;2022-07-21T04:54:42;13.45;;;11.13;;
25237;SDS011;13185;50.872;5.306;2022-07-21T04:57:07;17.73;;;10.95;;
25237;SDS011;13185;50.872;5.306;2022-07-21T04:59:33;18.70;;;11.23;;
25237;SDS011;13185;50.872;5.306;2022-07-21T05:01:59;15.07;;;10.68;;
25237;SDS011;13185;50.872;5.306;2022-07-21T05:04:25;11.75;;;10.02;;
25237;SDS011;13185;50.872;5.306;2022-07-21T05:06:51;14.77;;;10.85;;
25237;SDS011;13185;50.872;5.306;2022-07-21T05:09:17;13.98;;;9.27;;
25237;SDS011;13185;50.872;5.306;2022-07-21T05:11:42;11.85;;;9.25;;
25237;SDS011;13185;50.872;5.306;2022-07-21T05:14:08;14.55;;;9.80;;
25237;SDS011;13185;50.872;5.306;2022-07-21T05:16:34;14.55;;;9.27;;
25237;SDS011;13185;50.872;5.306;2022-07-21T05:18:59;12.23;;;9.20;;
25237;SDS011;13185;50.872;5.306;2022-07-21T05:21:25;10.32;;;9.23;;
25237;SDS011;13185;50.872;5.306;2022-07-21T05:23:50;10.80;;;8.63;;
25237;SDS011;13185;50.872;5.306;2022-07-21T05:26:16;11.60;;;8.80;;
25237;SDS011;13185;50.872;5.306;2022-07-21T05:28:41;9.77;;;8.63;;
25237;SDS011;13185;50.872;5.306;2022-07-21T05:31:07;14.00;;;9.10;;
25237;SDS011;13185;50.872;5.306;2022-07-21T05:33:33;14.45;;;9.27;;
25237;SDS011;13185;50.872;5.306;2022-07-21T05:35:58;14.73;;;8.77;;
25237;SDS011;13185;50.872;5.306;2022-07-21T05:38:24;12.38;;;8.38;;
25237;SDS011;13185;50.872;5.306;2022-07-21T05:40:49;12.43;;;8.57;;
25237;SDS011;13185;50.872;5.306;2022-07-21T05:43:15;16.20;;;8.77;;
25237;SDS011;13185;50.872;5.306;2022-07-21T05:45:40;15.13;;;8.70;;
25237;SDS011;13185;50.872;5.306;2022-07-21T05:48:06;11.25;;;8.30;;
25237;SDS011;13185;50.872;5.306;2022-07-21T05:50:31;12.80;;;9.43;;
25237;SDS011;13185;50.872;5.306;2022-07-21T05:52:57;12.68;;;10.95;;
25237;SDS011;13185;50.872;5.306;2022-07-21T05:55:23;16.70;;;10.93;;
25237;SDS011;13185;50.872;5.306;2022-07-21T05:57:48;15.43;;;11.82;;
25237;SDS011;13185;50.872;5.306;2022-07-21T06:00:14;17.45;;;13.07;;
25237;SDS011;13185;50.872;5.306;2022-07-21T06:02:41;21.23;;;14.07;;
25237;SDS011;13185;50.872;5.306;2022-07-21T06:05:07;15.65;;;12.70;;
25237;SDS011;13185;50.872;5.306;2022-07-21T06:07:33;16.90;;;13.70;;
25237;SDS011;13185;50.872;5.306;2022-07-21T06:09:59;15.40;;;12.93;;
25237;SDS011;13185;50.872;5.306;2022-07-21T06:12:26;16.20;;;13.80;;
25237;SDS011;13185;50.872;5.306;2022-07-21T06:14:52;17.70;;;14.38;;
25237;SDS011;13185;50.872;5.306;2022-07-21T06:17:17;17.05;;;13.77;;
25237;SDS011;13185;50.872;5.306;2022-07-21T06:19:43;16.08;;;12.85;;
25237;SDS011;13185;50.872;5.306;2022-07-21T06:22:08;14.55;;;12.75;;
25237;SDS011;13185;50.872;5.306;2022-07-21T06:24:34;14.05;;;12.48;;
25237;SDS011;13185;50.872;5.306;2022-07-21T06:26:59;13.35;;;11.15;;
25237;SDS011;13185;50.872;5.306;2022-07-21T06:29:24;13.98;;;11.55;;
25237;SDS011;13185;50.872;5.306;2022-07-21T06:31:50;13.50;;;10.55;;
25237;SDS011;13185;50.872;5.306;2022-07-21T06:34:16;16.00;;;11.63;;
25237;SDS011;13185;50.872;5.306;2022-07-21T06:36:42;14.93;;;10.15;;
25237;SDS011;13185;50.872;5.306;2022-07-21T06:39:08;18.40;;;11.18;;
25237;SDS011;13185;50.872;5.306;2022-07-21T06:41:34;13.35;;;10.18;;
25237;SDS011;13185;50.872;5.306;2022-07-21T06:44:04;17.40;;;11.80;;
25237;SDS011;13185;50.872;5.306;2022-07-21T06:46:31;14.32;;;10.85;;
25237;SDS011;13185;50.872;5.306;2022-07-21T06:49:00;17.13;;;10.38;;
25237;SDS011;13185;50.872;5.306;2022-07-21T06:51:26;21.60;;;10.82;;
25237;SDS011;13185;50.872;5.306;2022-07-21T06:53:51;16.80;;;10.10;;
25237;SDS011;13185;50.872;5.306;2022-07-21T06:56:17;16.05;;;10.77;;
25237;SDS011;13185;50.872;5.306;2022-07-21T06:58:43;18.05;;;11.18;;
25237;SDS011;13185;50.872;5.306;2022-07-21T07:01:09;18.10;;;10.65;;
25237;SDS011;13185;50.872;5.306;2022-07-21T07:03:35;17.30;;;10.65;;
25237;SDS011;13185;50.872;5.306;2022-07-21T07:06:01;18.05;;;11.15;;
25237;SDS011;13185;50.872;5.306;2022-07-21T07:08:27;21.75;;;11.38;;
25237;SDS011;13185;50.872;5.306;2022-07-21T07:10:53;20.75;;;11.85;;
25237;SDS011;13185;50.872;5.306;2022-07-21T07:13:18;18.15;;;11.00;;
25237;SDS011;13185;50.872;5.306;2022-07-21T07:15:44;17.40;;;10.52;;
25237;SDS011;13185;50.872;5.306;2022-07-21T07:18:09;19.48;;;10.35;;
25237;SDS011;13185;50.872;5.306;2022-07-21T07:20:35;20.00;;;10.50;;
25237;SDS011;13185;50.872;5.306;2022-07-21T07:23:01;21.23;;;11.40;;
25237;SDS011;13185;50.872;5.306;2022-07-21T07:25:27;17.13;;;11.20;;
25237;SDS011;13185;50.872;5.306;2022-07-21T07:27:53;17.25;;;11.40;;
25237;SDS011;13185;50.872;5.306;2022-07-21T07:30:20;18.90;;;12.10;;
25237;SDS011;13185;50.872;5.306;2022-07-21T07:32:46;20.27;;;12.52;;
25237;SDS011;13185;50.872;5.306;2022-07-21T07:35:14;19.40;;;12.27;;
25237;SDS011;13185;50.872;5.306;2022-07-21T07:37:41;20.98;;;12.68;;
25237;SDS011;13185;50.872;5.306;2022-07-21T07:40:12;20.70;;;12.95;;
25237;SDS011;13185;50.872;5.306;2022-07-21T07:42:40;18.58;;;12.63;;
25237;SDS011;13185;50.872;5.306;2022-07-21T07:45:06;20.70;;;12.68;;
25237;SDS011;13185;50.872;5.306;2022-07-21T07:47:33;19.15;;;12.63;;
25237;SDS011;13185;50.872;5.306;2022-07-21T07:49:58;23.70;;;14.73;;
25237;SDS011;13185;50.872;5.306;2022-07-21T07:52:24;22.95;;;13.82;;
25237;SDS011;13185;50.872;5.306;2022-07-21T07:54:50;23.60;;;14.05;;
25237;SDS011;13185;50.872;5.306;2022-07-21T07:57:15;22.67;;;13.18;;
25237;SDS011;13185;50.872;5.306;2022-07-21T07:59:41;23.33;;;12.77;;
25237;SDS011;13185;50.872;5.306;2022-07-21T08:02:06;18.38;;;12.07;;
25237;SDS011;13185;50.872;5.306;2022-07-21T08:04:32;19.02;;;12.63;;
25237;SDS011;13185;50.872;5.306;2022-07-21T08:06:57;20.13;;;13.13;;
25237;SDS011;13185;50.872;5.306;2022-07-21T08:09:23;18.90;;;12.75;;
25237;SDS011;13185;50.872;5.306;2022-07-21T08:11:48;20.00;;;13.15;;
25237;SDS011;13185;50.872;5.306;2022-07-21T08:14:15;23.40;;;13.43;;
25237;SDS011;13185;50.872;5.306;2022-07-21T08:16:41;20.85;;;12.68;;
25237;SDS011;13185;50.872;5.306;2022-07-21T08:19:07;16.70;;;12.45;;
25237;SDS011;13185;50.872;5.306;2022-07-21T08:21:32;17.83;;;11.82;;
25237;SDS011;13185;50.872;5.306;2022-07-21T08:23:59;20.40;;;12.98;;
25237;SDS011;13185;50.872;5.306;2022-07-21T08:26:27;21.20;;;12.45;;
25237;SDS011;13185;50.872;5.306;2022-07-21T08:28:53;19.73;;;12.15;;
25237;SDS011;13185;50.872;5.306;2022-07-21T08:31:20;15.15;;;12.63;;
25237;SDS011;13185;50.872;5.306;2022-07-21T08:33:45;16.60;;;12.82;;
25237;SDS011;13185;50.872;5.306;2022-07-21T08:36:11;19.02;;;13.25;;
25237;SDS011;13185;50.872;5.306;2022-07-21T08:38:37;16.60;;;11.45;;
25237;SDS011;13185;50.872;5.306;2022-07-21T08:41:03;12.93;;;11.45;;
25237;SDS011;13185;50.872;5.306;2022-07-21T08:43:29;16.02;;;10.73;;
25237;SDS011;13185;50.872;5.306;2022-07-21T08:45:55;12.98;;;10.68;;
25237;SDS011;13185;50.872;5.306;2022-07-21T08:48:24;15.43;;;10.63;;
25237;SDS011;13185;50.872;5.306;2022-07-21T08:50:51;12.80;;;10.40;;
25237;SDS011;13185;50.872;5.306;2022-07-21T08:53:17;14.32;;;10.60;;
25237;SDS011;13185;50.872;5.306;2022-07-21T08:55:42;11.95;;;10.15;;
25237;SDS011;13185;50.872;5.306;2022-07-21T08:58:08;11.00;;;9.70;;
25237;SDS011;13185;50.872;5.306;2022-07-21T09:00:35;12.77;;;9.55;;
25237;SDS011;13185;50.872;5.306;2022-07-21T09:05:36;14.68;;;10.85;;
25237;SDS011;13185;50.872;5.306;2022-07-21T09:08:02;13.82;;;11.25;;
25237;SDS011;13185;50.872;5.306;2022-07-21T09:10:28;13.98;;;11.52;;
25237;SDS011;13185;50.872;5.306;2022-07-21T09:12:57;17.42;;;12.63;;
25237;SDS011;13185;50.872;5.306;2022-07-21T09:15:24;14.88;;;12.13;;
25237;SDS011;13185;50.872;5.306;2022-07-21T09:18:11;18.42;;;13.38;;
25237;SDS011;13185;50.872;5.306;2022-07-21T09:20:47;17.05;;;13.25;;
25237;SDS011;13185;50.872;5.306;2022-07-21T09:23:15;18.60;;;13.05;;
25237;SDS011;13185;50.872;5.306;2022-07-21T09:25:46;17.48;;;13.30;;
25237;SDS011;13185;50.872;5.306;2022-07-21T09:35:52;23.55;;;16.60;;
25237;SDS011;13185;50.872;5.306;2022-07-21T09:38:18;23.90;;;17.08;;
25237;SDS011;13185;50.872;5.306;2022-07-21T09:40:47;21.08;;;16.58;;
25237;SDS011;13185;50.872;5.306;2022-07-21T09:43:29;25.83;;;18.63;;
25237;SDS011;13185;50.872;5.306;2022-07-21T09:48:44;26.15;;;18.40;;
25237;SDS011;13185;50.872;5.306;2022-07-21T09:51:30;22.95;;;17.70;;
25237;SDS011;13185;50.872;5.306;2022-07-21T09:56:28;27.38;;;19.00;;
25237;SDS011;13185;50.872;5.306;2022-07-21T09:58:55;30.50;;;19.70;;
25237;SDS011;13185;50.872;5.306;2022-07-21T10:01:23;28.35;;;20.13;;
25237;SDS011;13185;50.872;5.306;2022-07-21T10:03:50;27.02;;;20.00;;
25237;SDS011;13185;50.872;5.306;2022-07-21T10:06:18;32.80;;;21.25;;
25237;SDS011;13185;50.872;5.306;2022-07-21T10:08:45;31.73;;;21.13;;
25237;SDS011;13185;50.872;5.306;2022-07-21T10:11:11;29.17;;;20.55;;
25237;SDS011;13185;50.872;5.306;2022-07-21T10:13:38;32.15;;;22.02;;
25237;SDS011;13185;50.872;5.306;2022-07-21T10:16:04;32.13;;;21.80;;
25237;SDS011;13185;50.872;5.306;2022-07-21T10:18:32;31.58;;;22.25;;
25237;SDS011;13185;50.872;5.306;2022-07-21T10:21:04;35.17;;;20.98;;
25237;SDS011;13185;50.872;5.306;2022-07-21T10:23:46;28.90;;;21.17;;
25237;SDS011;13185;50.872;5.306;2022-07-21T10:26:17;29.95;;;20.95;;
25237;SDS011;13185;50.872;5.306;2022-07-21T10:28:44;30.25;;;21.05;;
25237;SDS011;13185;50.872;5.306;2022-07-21T10:31:14;28.65;;;20.38;;
25237;SDS011;13185;50.872;5.306;2022-07-21T10:41:37;32.53;;;21.00;;
25237;SDS011;13185;50.872;5.306;2022-07-21T10:55:21;7.07;;;5.97;;
25237;SDS011;13185;50.872;5.306;2022-07-21T11:00:49;4.93;;;4.50;;
25237;SDS011;13185;50.872;5.306;2022-07-21T11:08:31;4.60;;;4.05;;
25237;SDS011;13185;50.872;5.306;2022-07-21T11:11:06;4.35;;;3.80;;
25237;SDS011;13185;50.872;5.306;2022-07-21T11:21:58;5.47;;;4.50;;
25237;SDS011;13185;50.872;5.306;2022-07-21T11:24:26;5.85;;;3.85;;
25237;SDS011;13185;50.872;5.306;2022-07-21T11:26:56;7.25;;;4.32;;
25237;SDS011;13185;50.872;5.306;2022-07-21T11:29:27;7.57;;;4.75;;
25237;SDS011;13185;50.872;5.306;2022-07-21T11:31:53;4.90;;;4.40;;
25237;SDS011;13185;50.872;5.306;2022-07-21T11:34:19;4.70;;;4.15;;
25237;SDS011;13185;50.872;5.306;2022-07-21T11:36:45;8.48;;;4.82;;
25237;SDS011;13185;50.872;5.306;2022-07-21T11:39:12;8.02;;;5.30;;
25237;SDS011;13185;50.872;5.306;2022-07-21T11:41:40;9.85;;;6.00;;
25237;SDS011;13185;50.872;5.306;2022-07-21T11:44:06;8.57;;;5.93;;
25237;SDS011;13185;50.872;5.306;2022-07-21T11:46:52;6.45;;;5.50;;
25237;SDS011;13185;50.872;5.306;2022-07-21T11:49:22;6.22;;;5.30;;
25237;SDS011;13185;50.872;5.306;2022-07-21T11:51:52;8.15;;;6.05;;
25237;SDS011;13185;50.872;5.306;2022-07-21T11:56:59;7.85;;;5.97;;
25237;SDS011;13185;50.872;5.306;2022-07-21T11:59:26;10.32;;;6.10;;
25237;SDS011;13185;50.872;5.306;2022-07-21T12:01:54;6.85;;;5.25;;
25237;SDS011;13185;50.872;5.306;2022-07-21T12:04:29;8.32;;;5.05;;
25237;SDS011;13185;50.872;5.306;2022-07-21T12:06:59;7.47;;;5.82;;
25237;SDS011;13185;50.872;5.306;2022-07-21T12:09:25;6.95;;;5.20;;
25237;SDS011;13185;50.872;5.306;2022-07-21T12:11:51;10.23;;;5.30;;
25237;SDS011;13185;50.872;5.306;2022-07-21T12:14:17;11.15;;;5.47;;
25237;SDS011;13185;50.872;5.306;2022-07-21T12:16:49;10.45;;;5.40;;
25237;SDS011;13185;50.872;5.306;2022-07-21T12:19:16;11.43;;;5.60;;
25237;SDS011;13185;50.872;5.306;2022-07-21T12:21:47;8.07;;;5.03;;
25237;SDS011;13185;50.872;5.306;2022-07-21T12:24:16;7.85;;;5.28;;
25237;SDS011;13185;50.872;5.306;2022-07-21T12:26:42;8.00;;;5.20;;
25237;SDS011;13185;50.872;5.306;2022-07-21T12:29:08;7.93;;;5.13;;
25237;SDS011;13185;50.872;5.306;2022-07-21T12:31:34;8.52;;;5.57;;
25237;SDS011;13185;50.872;5.306;2022-07-21T12:34:11;8.25;;;5.25;;
25237;SDS011;13185;50.872;5.306;2022-07-21T12:36:39;9.25;;;6.00;;
25237;SDS011;13185;50.872;5.306;2022-07-21T12:42:35;8.20;;;5.22;;
25237;SDS011;13185;50.872;5.306;2022-07-21T12:45:12;11.25;;;5.80;;
25237;SDS011;13185;50.872;5.306;2022-07-21T12:47:40;9.23;;;5.68;;
25237;SDS011;13185;50.872;5.306;2022-07-21T12:50:06;10.20;;;5.95;;
25237;SDS011;13185;50.872;5.306;2022-07-21T12:55:04;10.27;;;5.80;;
25237;SDS011;13185;50.872;5.306;2022-07-21T12:57:31;7.63;;;5.47;;
25237;SDS011;13185;50.872;5.306;2022-07-21T12:59:58;8.57;;;5.78;;
25237;SDS011;13185;50.872;5.306;2022-07-21T13:02:24;10.13;;;5.50;;
25237;SDS011;13185;50.872;5.306;2022-07-21T13:04:50;8.30;;;5.50;;
25237;SDS011;13185;50.872;5.306;2022-07-21T13:07:16;11.45;;;5.90;;
25237;SDS011;13185;50.872;5.306;2022-07-21T13:09:41;9.90;;;4.97;;
25237;SDS011;13185;50.872;5.306;2022-07-21T13:12:07;9.90;;;5.00;;
25237;SDS011;13185;50.872;5.306;2022-07-21T13:14:32;6.25;;;4.47;;
25237;SDS011;13185;50.872;5.306;2022-07-21T13:16:59;9.52;;;4.63;;
25237;SDS011;13185;50.872;5.306;2022-07-21T13:19:25;6.45;;;4.10;;
25237;SDS011;13185;50.872;5.306;2022-07-21T13:21:50;6.93;;;4.65;;
25237;SDS011;13185;50.872;5.306;2022-07-21T13:24:17;11.52;;;5.95;;
25237;SDS011;13185;50.872;5.306;2022-07-21T13:26:43;7.85;;;5.20;;
25237;SDS011;13185;50.872;5.306;2022-07-21T13:29:09;6.53;;;4.55;;
25237;SDS011;13185;50.872;5.306;2022-07-21T13:31:34;4.20;;;3.72;;
25237;SDS011;13185;50.872;5.306;2022-07-21T13:34:03;4.57;;;3.75;;
25237;SDS011;13185;50.872;5.306;2022-07-21T13:36:32;8.00;;;3.40;;
25237;SDS011;13185;50.872;5.306;2022-07-21T13:38:58;4.85;;;3.55;;
25237;SDS011;13185;50.872;5.306;2022-07-21T13:41:24;5.65;;;3.70;;
25237;SDS011;13185;50.872;5.306;2022-07-21T13:43:50;5.13;;;3.53;;
25237;SDS011;13185;50.872;5.306;2022-07-21T13:46:16;4.22;;;2.80;;
25237;SDS011;13185;50.872;5.306;2022-07-21T13:48:41;5.78;;;3.20;;
25237;SDS011;13185;50.872;5.306;2022-07-21T13:51:07;2.78;;;2.42;;
25237;SDS011;13185;50.872;5.306;2022-07-21T13:53:34;7.97;;;3.55;;
25237;SDS011;13185;50.872;5.306;2022-07-21T13:55:59;4.20;;;2.58;;
25237;SDS011;13185;50.872;5.306;2022-07-21T13:58:25;5.18;;;3.03;;
25237;SDS011;13185;50.872;5.306;2022-07-21T14:00:50;3.85;;;3.38;;
25237;SDS011;13185;50.872;5.306;2022-07-21T14:03:16;5.00;;;3.72;;
25237;SDS011;13185;50.872;5.306;2022-07-21T14:05:42;6.90;;;4.25;;
25237;SDS011;13185;50.872;5.306;2022-07-21T14:08:07;5.00;;;3.95;;
25237;SDS011;13185;50.872;5.306;2022-07-21T14:10:33;6.85;;;4.78;;
25237;SDS011;13185;50.872;5.306;2022-07-21T14:12:59;4.88;;;4.22;;
25237;SDS011;13185;50.872;5.306;2022-07-21T14:15:25;6.45;;;4.65;;
25237;SDS011;13185;50.872;5.306;2022-07-21T14:17:50;7.78;;;5.13;;
25237;SDS011;13185;50.872;5.306;2022-07-21T14:20:16;10.18;;;5.65;;
25237;SDS011;13185;50.872;5.306;2022-07-21T14:22:41;8.35;;;5.22;;
25237;SDS011;13185;50.872;5.306;2022-07-21T14:25:07;6.47;;;5.25;;
25237;SDS011;13185;50.872;5.306;2022-07-21T14:27:48;7.05;;;5.53;;
25237;SDS011;13185;50.872;5.306;2022-07-21T14:30:16;9.15;;;6.18;;
25237;SDS011;13185;50.872;5.306;2022-07-21T14:32:43;6.50;;;5.40;;
25237;SDS011;13185;50.872;5.306;2022-07-21T14:35:09;6.47;;;5.32;;
25237;SDS011;13185;50.872;5.306;2022-07-21T14:37:35;9.00;;;5.18;;
25237;SDS011;13185;50.872;5.306;2022-07-21T14:40:01;9.80;;;5.35;;
25237;SDS011;13185;50.872;5.306;2022-07-21T14:42:28;12.02;;;5.50;;
25237;SDS011;13185;50.872;5.306;2022-07-21T14:44:54;8.45;;;5.38;;
25237;SDS011;13185;50.872;5.306;2022-07-21T14:47:19;7.70;;;4.55;;
25237;SDS011;13185;50.872;5.306;2022-07-21T14:49:45;7.53;;;5.03;;
25237;SDS011;13185;50.872;5.306;2022-07-21T14:52:10;8.80;;;4.25;;
25237;SDS011;13185;50.872;5.306;2022-07-21T14:54:36;8.43;;;4.88;;
25237;SDS011;13185;50.872;5.306;2022-07-21T14:57:02;10.02;;;5.55;;
25237;SDS011;13185;50.872;5.306;2022-07-21T14:59:30;8.80;;;5.00;;
25237;SDS011;13185;50.872;5.306;2022-07-21T15:01:55;9.27;;;4.55;;
25237;SDS011;13185;50.872;5.306;2022-07-21T15:04:21;11.32;;;5.40;;
25237;SDS011;13185;50.872;5.306;2022-07-21T15:06:47;9.15;;;4.72;;
25237;SDS011;13185;50.872;5.306;2022-07-21T15:09:13;9.38;;;5.20;;
25237;SDS011;13185;50.872;5.306;2022-07-21T15:11:39;12.30;;;5.95;;
25237;SDS011;13185;50.872;5.306;2022-07-21T15:14:04;13.07;;;6.43;;
25237;SDS011;13185;50.872;5.306;2022-07-21T15:16:30;10.70;;;5.85;;
25237;SDS011;13185;50.872;5.306;2022-07-21T15:18:55;8.07;;;5.38;;
25237;SDS011;13185;50.872;5.306;2022-07-21T15:21:21;9.65;;;5.55;;
25237;SDS011;13185;50.872;5.306;2022-07-21T15:23:47;10.73;;;4.85;;
25237;SDS011;13185;50.872;5.306;2022-07-21T15:26:12;14.45;;;6.13;;
25237;SDS011;13185;50.872;5.306;2022-07-21T15:28:38;11.60;;;5.82;;
25237;SDS011;13185;50.872;5.306;2022-07-21T15:31:04;10.82;;;5.15;;
25237;SDS011;13185;50.872;5.306;2022-07-21T15:33:29;13.73;;;5.72;;
25237;SDS011;13185;50.872;5.306;2022-07-21T15:35:55;13.23;;;5.85;;